Time,TemperatureF,DewpointF,PressureIn,WindDirection,WindDirectionDegrees,WindSpeedMPH,WindSpeedGustMPH,Humidity,HourlyPrecipIn,Conditions,Clouds,dailyrainin,SoftwareType,DateUTC
2015-08-29 00:00:00,57.7,53.0,30.20,SW,231,0.0,0.0,84,0.00,,---,0.00,VWS V13.00,2015-08-29 04:00:00,
2015-08-29 00:15:00,57.4,52.6,30.20,SW,231,0.0,0.0,84,0.00,,---,0.00,VWS V13.00,2015-08-29 04:15:00,
2015-08-29 00:30:00,57.2,52.7,30.20,SW,231,0.0,0.0,85,0.00,,---,0.00,VWS V13.00,2015-08-29 04:30:00,
2015-08-29 00:45:00,56.8,52.4,30.20,SW,231,0.0,0.0,85,0.00,,---,0.00,VWS V13.00,2015-08-29 04:45:00,
2015-08-29 01:00:00,56.7,52.2,30.20,SW,231,0.0,0.0,85,0.00,,---,0.00,VWS V13.00,2015-08-29 05:00:00,
2015-08-29 01:15:00,56.3,51.9,30.20,SW,231,0.0,0.0,85,0.00,,---,0.00,VWS V13.00,2015-08-29 05:15:00,
2015-08-29 01:30:00,56.1,52.0,30.20,SW,231,0.0,0.0,86,0.00,,---,0.00,VWS V13.00,2015-08-29 05:30:00,
2015-08-29 01:45:00,55.8,51.6,30.20,SW,231,0.0,0.0,86,0.00,,---,0.00,VWS V13.00,2015-08-29 05:45:00,
2015-08-29 02:00:00,55.2,51.4,30.20,SW,231,0.0,0.0,87,0.00,,---,0.00,VWS V13.00,2015-08-29 06:00:00,
2015-08-29 02:15:00,54.9,51.1,30.20,SW,231,0.0,0.0,87,0.00,,---,0.00,VWS V13.00,2015-08-29 06:15:00,
2015-08-29 02:30:00,54.7,50.9,30.20,SW,231,0.0,0.0,87,0.00,,---,0.00,VWS V13.00,2015-08-29 06:30:00,
2015-08-29 02:45:00,54.5,51.0,30.20,SW,231,0.0,0.0,88,0.00,,---,0.00,VWS V13.00,2015-08-29 06:45:00,
2015-08-29 03:00:00,54.1,50.7,30.20,SW,231,0.0,0.0,88,0.00,,---,0.00,VWS V13.00,2015-08-29 07:00:00,
2015-08-29 03:15:00,53.8,50.3,30.20,SW,231,0.0,0.0,88,0.00,,---,0.00,VWS V13.00,2015-08-29 07:15:00,
2015-08-29 03:30:00,53.6,50.1,30.17,SW,231,0.0,0.0,88,0.00,,---,0.00,VWS V13.00,2015-08-29 07:30:00,
2015-08-29 03:45:00,53.4,50.3,30.20,SW,231,0.0,0.0,89,0.00,,---,0.00,VWS V13.00,2015-08-29 07:45:00,
2015-08-29 04:00:00,53.2,50.1,30.20,SW,231,0.0,0.0,89,0.00,,---,0.00,VWS V13.00,2015-08-29 08:00:00,
2015-08-29 04:15:00,53.1,49.9,30.20,SW,231,0.0,0.0,89,0.00,,---,0.00,VWS V13.00,2015-08-29 08:15:00,
2015-08-29 04:30:00,53.1,50.2,30.20,SW,231,0.0,0.0,90,0.00,,---,0.00,VWS V13.00,2015-08-29 08:30:00,
2015-08-29 04:45:00,52.7,49.5,30.20,SW,231,0.0,0.0,89,0.00,,---,0.00,VWS V13.00,2015-08-29 08:45:00,
2015-08-29 05:00:00,52.5,49.4,30.17,SW,231,0.0,0.0,89,0.00,,---,0.00,VWS V13.00,2015-08-29 09:00:00,
2015-08-29 05:15:00,52.2,49.0,30.20,SW,231,0.0,0.0,89,0.00,,---,0.00,VWS V13.00,2015-08-29 09:15:00,
2015-08-29 05:30:00,51.6,48.5,30.20,SW,231,0.0,0.0,89,0.00,,---,0.00,VWS V13.00,2015-08-29 09:30:00,
2015-08-29 05:45:00,51.3,48.1,30.20,SW,231,0.0,0.0,89,0.00,,---,0.00,VWS V13.00,2015-08-29 09:45:00,
2015-08-29 06:00:00,50.9,47.8,30.20,SW,231,0.0,0.0,89,0.00,,---,0.00,VWS V13.00,2015-08-29 10:00:00,
2015-08-29 06:15:00,50.7,47.6,30.20,SW,231,0.0,0.0,89,0.00,,---,0.00,VWS V13.00,2015-08-29 10:15:00,
2015-08-29 06:30:00,50.7,47.6,30.20,SW,231,0.0,0.0,89,0.00,,---,0.00,VWS V13.00,2015-08-29 10:30:00,
2015-08-29 06:45:00,50.7,47.9,30.20,SW,231,0.0,0.0,90,0.00,,---,0.00,VWS V13.00,2015-08-29 10:45:00,
2015-08-29 07:00:00,51.1,48.2,30.20,SW,231,0.0,0.0,90,0.00,,---,0.00,VWS V13.00,2015-08-29 11:00:00,
2015-08-29 07:15:00,51.4,48.9,30.23,SW,231,0.0,0.0,91,0.00,,---,0.00,VWS V13.00,2015-08-29 11:15:00,
2015-08-29 07:30:00,51.6,49.1,30.23,SW,231,0.0,0.0,91,0.00,,---,0.00,VWS V13.00,2015-08-29 11:30:00,
2015-08-29 07:45:00,52.5,50.0,30.23,SW,231,0.0,0.0,91,0.00,,---,0.00,VWS V13.00,2015-08-29 11:45:00,
2015-08-29 08:00:00,53.4,51.2,30.23,SW,231,0.0,0.0,92,0.00,,---,0.00,VWS V13.00,2015-08-29 12:00:00,
2015-08-29 08:15:00,55.2,52.9,30.23,SW,231,0.0,0.0,92,0.00,,---,0.00,VWS V13.00,2015-08-29 12:15:00,
2015-08-29 08:30:00,57.0,55.0,30.23,SW,231,0.0,0.0,93,0.00,,---,0.00,VWS V13.00,2015-08-29 12:30:00,
2015-08-29 08:45:00,58.8,56.5,30.23,SW,231,0.0,0.0,92,0.00,,---,0.00,VWS V13.00,2015-08-29 12:45:00,
2015-08-29 09:00:00,61.3,57.8,30.23,SSE,162,0.0,2.7,88,0.00,,---,0.00,VWS V13.00,2015-08-29 13:00:00,
2015-08-29 09:15:00,63.3,57.7,30.23,SSE,162,0.0,3.1,82,0.00,,---,0.00,VWS V13.00,2015-08-29 13:15:00,
2015-08-29 09:30:00,64.6,57.6,30.23,ENE,70,0.0,3.6,78,0.00,,---,0.00,VWS V13.00,2015-08-29 13:30:00,
2015-08-29 09:45:00,65.5,57.0,30.23,SE,142,0.0,3.1,74,0.00,,---,0.00,VWS V13.00,2015-08-29 13:45:00,
2015-08-29 10:00:00,67.3,56.8,30.23,SSW,209,2.7,5.4,69,0.00,,---,0.00,VWS V13.00,2015-08-29 14:00:00,
2015-08-29 10:15:00,68.9,56.2,30.20,SSW,196,2.2,4.0,64,0.00,,---,0.00,VWS V13.00,2015-08-29 14:15:00,
2015-08-29 10:30:00,69.8,53.9,30.20,WNW,299,0.0,5.4,57,0.00,,---,0.00,VWS V13.00,2015-08-29 14:30:00,
2015-08-29 10:45:00,70.9,52.4,30.20,NW,323,2.2,4.9,52,0.00,,---,0.00,VWS V13.00,2015-08-29 14:45:00,
2015-08-29 11:00:00,72.0,51.2,30.20,WSW,238,2.2,5.4,48,0.00,,---,0.00,VWS V13.00,2015-08-29 15:00:00,
2015-08-29 11:15:00,72.7,51.3,30.20,WSW,240,5.4,6.7,47,0.00,,---,0.00,VWS V13.00,2015-08-29 15:15:00,
2015-08-29 11:30:00,74.3,51.6,30.20,West,265,0.0,8.3,45,0.00,,---,0.00,VWS V13.00,2015-08-29 15:30:00,
2015-08-29 11:45:00,73.9,49.4,30.20,NW,324,3.6,8.3,42,0.00,,---,0.00,VWS V13.00,2015-08-29 15:45:00,
2015-08-29 12:00:00,74.8,50.2,30.20,South,179,2.2,5.4,42,0.00,,---,0.00,VWS V13.00,2015-08-29 16:00:00,
2015-08-29 12:15:00,76.1,51.4,30.20,SSW,206,4.0,8.3,42,0.00,,---,0.00,VWS V13.00,2015-08-29 16:15:00,
2015-08-29 12:30:00,77.2,51.7,30.20,WSW,250,3.1,6.3,41,0.00,,---,0.00,VWS V13.00,2015-08-29 16:30:00,
2015-08-29 12:45:00,78.1,52.5,30.20,NW,315,0.0,8.1,41,0.00,,---,0.00,VWS V13.00,2015-08-29 16:45:00,
2015-08-29 13:00:00,77.9,52.3,30.20,WNW,289,2.7,6.3,41,0.00,,---,0.00,VWS V13.00,2015-08-29 17:00:00,
2015-08-29 13:15:00,79.0,52.6,30.17,WSW,246,6.3,8.7,40,0.00,,---,0.00,VWS V13.00,2015-08-29 17:15:00,
2015-08-29 13:30:00,79.7,51.9,30.17,SW,218,0.0,9.2,38,0.00,,---,0.00,VWS V13.00,2015-08-29 17:30:00,
2015-08-29 13:45:00,80.1,51.5,30.17,WNW,289,5.4,8.1,37,0.00,,---,0.00,VWS V13.00,2015-08-29 17:45:00,
2015-08-29 14:00:00,80.8,51.4,30.17,South,190,0.0,8.1,36,0.00,,---,0.00,VWS V13.00,2015-08-29 18:00:00,
2015-08-29 14:15:00,81.9,52.3,30.17,South,179,3.6,8.3,36,0.00,,---,0.00,VWS V13.00,2015-08-29 18:15:00,
2015-08-29 14:30:00,81.0,50.8,30.14,WNW,297,0.0,8.3,35,0.00,,---,0.00,VWS V13.00,2015-08-29 18:30:00,
2015-08-29 14:45:00,80.6,52.0,30.14,South,180,3.6,6.3,37,0.00,,---,0.00,VWS V13.00,2015-08-29 18:45:00,
2015-08-29 15:00:00,82.2,51.9,30.14,SSW,195,3.6,8.7,35,0.00,,---,0.00,VWS V13.00,2015-08-29 19:00:00,
2015-08-29 15:15:00,82.4,50.4,30.14,NNE,22,0.0,8.1,33,0.00,,---,0.00,VWS V13.00,2015-08-29 19:15:00,
2015-08-29 15:30:00,82.6,52.2,30.14,South,190,5.4,6.3,35,0.00,,---,0.00,VWS V13.00,2015-08-29 19:30:00,
2015-08-29 15:45:00,82.9,50.9,30.11,WSW,241,4.0,7.6,33,0.00,,---,0.00,VWS V13.00,2015-08-29 19:45:00,
2015-08-29 16:00:00,81.9,50.0,30.11,NNW,343,0.0,10.5,33,0.00,,---,0.00,VWS V13.00,2015-08-29 20:00:00,
2015-08-29 16:15:00,84.0,51.0,30.11,WSW,246,0.0,6.3,32,0.00,,---,0.00,VWS V13.00,2015-08-29 20:15:00,
2015-08-29 16:30:00,83.5,50.5,30.11,NW,314,2.7,7.6,32,0.00,,---,0.00,VWS V13.00,2015-08-29 20:30:00,
2015-08-29 16:45:00,83.1,50.2,30.11,WSW,252,6.3,6.3,32,0.00,,---,0.00,VWS V13.00,2015-08-29 20:45:00,
2015-08-29 17:00:00,84.0,51.0,30.11,SSW,198,3.1,8.1,32,0.00,,---,0.00,VWS V13.00,2015-08-29 21:00:00,
2015-08-29 17:15:00,82.8,49.9,30.11,NW,319,4.0,7.6,32,0.00,,---,0.00,VWS V13.00,2015-08-29 21:15:00,
2015-08-29 17:30:00,81.5,49.7,30.11,WSW,246,0.0,4.9,33,0.00,,---,0.00,VWS V13.00,2015-08-29 21:30:00,
2015-08-29 17:45:00,80.1,50.7,30.11,South,177,0.0,3.6,36,0.00,,---,0.00,VWS V13.00,2015-08-29 21:45:00,
2015-08-29 18:00:00,78.8,52.5,30.11,WSW,249,0.0,2.7,40,0.00,,---,0.00,VWS V13.00,2015-08-29 22:00:00,
2015-08-29 18:15:00,78.3,54.0,30.11,WSW,253,0.0,4.0,43,0.00,,---,0.00,VWS V13.00,2015-08-29 22:15:00,
2015-08-29 18:30:00,77.0,54.7,30.11,WSW,254,0.0,0.0,46,0.00,,---,0.00,VWS V13.00,2015-08-29 22:30:00,
2015-08-29 18:45:00,75.9,54.8,30.08,WSW,254,0.0,0.0,48,0.00,,---,0.00,VWS V13.00,2015-08-29 22:45:00,
2015-08-29 19:00:00,74.5,55.2,30.08,WSW,253,0.0,0.0,51,0.00,,---,0.00,VWS V13.00,2015-08-29 23:00:00,
2015-08-29 19:15:00,73.2,55.6,30.08,WSW,254,0.0,0.0,54,0.00,,---,0.00,VWS V13.00,2015-08-29 23:15:00,
2015-08-29 19:30:00,71.8,55.8,30.11,WSW,254,0.0,0.0,57,0.00,,---,0.00,VWS V13.00,2015-08-29 23:30:00,
2015-08-29 19:45:00,70.5,56.0,30.08,WSW,254,0.0,0.0,60,0.00,,---,0.00,VWS V13.00,2015-08-29 23:45:00,